createdAt,value
2022-10-25T00:01:51.181Z,36.33
2022-10-25T00:04:18.309Z,30.60
2022-10-25T00:06:45.276Z,34.67
2022-10-25T00:09:12.246Z,34.95
2022-10-25T00:11:39.234Z,36.67
2022-10-25T00:14:08.581Z,34.03
2022-10-25T00:16:38.053Z,38.20
2022-10-25T00:19:05.707Z,35.55
2022-10-25T00:21:33.269Z,37.67
2022-10-25T00:24:00.172Z,37.40
2022-10-25T00:26:27.099Z,36.20
2022-10-25T00:28:55.368Z,36.38
2022-10-25T00:31:22.792Z,41.55
2022-10-25T00:33:49.981Z,36.17
2022-10-25T00:36:25.032Z,31.27
2022-10-25T00:38:52.303Z,37.20
2022-10-25T00:41:22.068Z,36.67
2022-10-25T00:43:54.349Z,36.75
2022-10-25T00:46:21.276Z,35.57
2022-10-25T00:49:23.626Z,36.95
2022-10-25T00:51:56.069Z,32.00
2022-10-25T00:54:29.078Z,34.53
2022-10-25T00:56:59.584Z,35.97
2022-10-25T00:59:28.744Z,38.17
2022-10-25T01:01:56.672Z,32.65
2022-10-25T01:04:27.655Z,33.47
2022-10-25T01:06:54.588Z,37.42
2022-10-25T01:09:26.658Z,39.63
2022-10-25T01:11:53.703Z,34.97
2022-10-25T01:14:21.726Z,36.92
2022-10-25T01:17:09.568Z,37.75
2022-10-25T01:19:39.462Z,34.83
2022-10-25T01:22:11.754Z,40.67
2022-10-25T01:24:59.907Z,39.97
2022-10-25T01:27:41.682Z,36.38
2022-10-25T01:30:15.928Z,36.70
2022-10-25T01:32:43.192Z,35.15
2022-10-25T01:35:16.066Z,42.42
2022-10-25T01:38:00.751Z,38.05
2022-10-25T01:40:41.341Z,38.25
2022-10-25T01:43:08.131Z,32.65
2022-10-25T01:45:47.865Z,38.72
2022-10-25T01:48:25.410Z,40.75
2022-10-25T01:50:52.854Z,37.20
2022-10-25T01:53:19.728Z,39.97
2022-10-25T01:55:57.641Z,37.67
2022-10-25T01:58:54.302Z,37.00
2022-10-25T02:01:57.707Z,42.40
2022-10-25T02:04:59.494Z,39.05
2022-10-25T02:07:38.834Z,38.58
2022-10-25T02:10:16.794Z,45.55
2022-10-25T02:12:58.583Z,43.45
2022-10-25T02:15:44.375Z,44.45
2022-10-25T02:18:15.974Z,40.30
2022-10-25T02:20:46.710Z,42.70
2022-10-25T02:23:14.982Z,40.42
2022-10-25T02:25:43.449Z,47.60
2022-10-25T02:28:12.978Z,40.95
2022-10-25T02:30:42.345Z,40.88
2022-10-25T02:43:49.551Z,42.33
2022-10-25T02:46:19.651Z,43.33
2022-10-25T02:48:47.292Z,45.60
2022-10-25T02:51:14.905Z,41.05
2022-10-25T02:53:42.098Z,41.22
2022-10-25T02:56:15.203Z,41.25
2022-10-25T03:01:10.247Z,41.33
2022-10-25T03:03:37.216Z,39.10
2022-10-25T03:06:04.557Z,36.90
2022-10-25T03:08:31.871Z,42.20
2022-10-25T03:10:59.428Z,40.80
2022-10-25T03:13:26.514Z,42.50
2022-10-25T03:15:53.482Z,40.90
2022-10-25T03:18:20.458Z,39.78
2022-10-25T03:20:47.275Z,43.35
2022-10-25T03:23:16.196Z,42.42
2022-10-25T03:25:43.772Z,42.17
2022-10-25T03:28:10.820Z,45.88
2022-10-25T03:30:37.759Z,46.92
2022-10-25T03:33:05.067Z,47.83
2022-10-25T03:35:32.325Z,50.15
2022-10-25T03:37:59.191Z,52.38
2022-10-25T03:40:26.088Z,55.63
2022-10-25T03:42:52.901Z,53.58
2022-10-25T03:45:21.052Z,58.67
2022-10-25T03:47:48.327Z,61.13
2022-10-25T03:50:15.412Z,56.50
2022-10-25T03:52:42.243Z,60.78
2022-10-25T03:55:10.043Z,55.55
2022-10-25T03:57:37.084Z,65.22
2022-10-25T04:00:05.007Z,58.67
2022-10-25T04:02:32.220Z,59.63
2022-10-25T04:04:59.042Z,55.22
2022-10-25T04:07:25.915Z,59.78
2022-10-25T04:09:53.206Z,55.40
2022-10-25T04:12:20.139Z,55.90
2022-10-25T04:14:46.988Z,55.78
2022-10-25T04:17:13.993Z,54.78
2022-10-25T04:19:40.941Z,47.50
2022-10-25T04:22:07.787Z,53.83
2022-10-25T04:24:34.673Z,50.08
2022-10-25T04:27:01.515Z,47.30
2022-10-25T04:29:28.720Z,46.83
2022-10-25T04:31:55.719Z,50.58
2022-10-25T04:34:22.536Z,55.60
2022-10-25T04:36:49.431Z,44.20
2022-10-25T04:39:16.718Z,48.97
2022-10-25T04:41:43.561Z,47.53
2022-10-25T04:44:10.707Z,47.65
2022-10-25T04:46:37.643Z,46.40
2022-10-25T04:49:04.506Z,43.00
2022-10-25T04:51:31.739Z,47.22
2022-10-25T04:53:58.601Z,47.13
2022-10-25T04:56:25.490Z,48.15
2022-10-25T04:58:52.297Z,50.17
2022-10-25T05:01:19.339Z,54.38
2022-10-25T05:03:46.646Z,51.28
2022-10-25T05:06:16.429Z,49.33
2022-10-25T05:08:46.323Z,46.55
2022-10-25T05:11:14.915Z,48.40
2022-10-25T05:13:42.891Z,48.55
2022-10-25T05:16:14.883Z,53.03
2022-10-25T05:18:42.917Z,50.22
2022-10-25T05:21:10.413Z,49.30
2022-10-25T05:23:37.409Z,50.70
2022-10-25T05:26:16.411Z,53.47
2022-10-25T05:28:44.984Z,59.92
2022-10-25T05:31:20.779Z,54.63
2022-10-25T05:33:50.971Z,58.80
2022-10-25T05:36:18.678Z,60.00
2022-10-25T05:38:46.008Z,61.70
2022-10-25T05:41:15.063Z,54.80
2022-10-25T05:43:42.343Z,66.03
2022-10-25T05:46:21.333Z,60.47
2022-10-25T05:48:49.310Z,60.92
2022-10-25T05:54:12.139Z,62.25
2022-10-25T05:56:39.908Z,64.13
2022-10-25T05:59:09.774Z,63.70
2022-10-25T06:01:39.081Z,62.53
2022-10-25T06:04:06.773Z,64.40
2022-10-25T06:06:33.745Z,64.40
2022-10-25T06:09:01.722Z,66.32
2022-10-25T06:11:29.682Z,75.75
2022-10-25T06:13:57.013Z,58.13
2022-10-25T06:16:24.584Z,61.80
2022-10-25T06:18:51.960Z,58.70
2022-10-25T06:21:21.619Z,57.38
2022-10-25T06:23:49.713Z,53.53
2022-10-25T06:26:27.810Z,56.88
2022-10-25T06:28:56.982Z,52.80
2022-10-25T06:31:24.744Z,56.03
2022-10-25T06:33:52.720Z,52.60
2022-10-25T06:36:22.102Z,52.15
2022-10-25T06:38:50.009Z,52.75
2022-10-25T06:41:22.580Z,51.80
2022-10-25T06:43:50.329Z,44.88
2022-10-25T06:46:17.522Z,63.30
2022-10-25T06:48:44.784Z,47.55
2022-10-25T06:51:12.005Z,46.00
2022-10-25T06:53:39.311Z,44.92
2022-10-25T06:56:10.690Z,47.33
2022-10-25T06:58:41.609Z,48.63
2022-10-25T07:01:12.375Z,47.75
2022-10-25T07:03:40.233Z,42.33
2022-10-25T07:06:07.515Z,42.75
2022-10-25T07:08:36.446Z,42.65
2022-10-25T07:11:03.952Z,49.22
2022-10-25T07:13:32.010Z,44.65
2022-10-25T07:16:08.759Z,42.38
2022-10-25T07:18:36.945Z,42.25
2022-10-25T07:21:07.273Z,37.47
2022-10-25T07:23:34.746Z,34.85
2022-10-25T07:26:01.575Z,37.85
2022-10-25T07:28:28.449Z,36.58
2022-10-25T07:30:55.290Z,44.50
2022-10-25T07:33:22.135Z,29.58
2022-10-25T07:36:05.791Z,27.27
2022-10-25T07:38:37.293Z,25.38
2022-10-25T07:41:04.585Z,28.08
2022-10-25T07:43:31.858Z,23.15
2022-10-25T07:45:58.973Z,22.33
2022-10-25T07:48:26.028Z,23.38
2022-10-25T07:50:52.907Z,22.63
2022-10-25T07:53:20.025Z,20.13
2022-10-25T07:55:52.048Z,19.10
2022-10-25T07:58:19.452Z,20.30
2022-10-25T08:00:46.973Z,16.42
2022-10-25T08:03:15.403Z,14.98
2022-10-25T08:05:45.294Z,16.10
2022-10-25T08:08:13.224Z,19.88
2022-10-25T08:10:42.901Z,14.95
2022-10-25T08:13:10.131Z,14.95
2022-10-25T08:15:37.046Z,18.40
2022-10-25T08:18:04.780Z,15.63
2022-10-25T08:21:00.182Z,14.43
2022-10-25T08:23:19.232Z,16.63
2022-10-25T08:25:47.016Z,13.93
2022-10-25T08:28:14.234Z,13.98
2022-10-25T08:30:41.855Z,14.07
2022-10-25T08:33:11.663Z,15.98
2022-10-25T08:35:39.264Z,18.23
2022-10-25T08:38:06.574Z,16.30
2022-10-25T08:40:42.518Z,18.20
2022-10-25T08:43:39.752Z,17.73
2022-10-25T08:46:13.972Z,19.38
2022-10-25T08:48:46.155Z,22.17
2022-10-25T08:51:25.112Z,18.20
2022-10-25T08:53:56.535Z,21.50
2022-10-25T08:56:25.049Z,18.13
2022-10-25T08:58:57.619Z,18.20
2022-10-25T09:01:31.637Z,20.92
2022-10-25T09:04:01.538Z,19.67
2022-10-25T09:06:37.605Z,17.77
2022-10-25T09:09:30.102Z,18.35
2022-10-25T09:12:02.954Z,16.70
2022-10-25T09:14:39.783Z,17.83
2022-10-25T09:17:48.952Z,19.00
2022-10-25T09:20:32.798Z,11.15
2022-10-25T09:23:14.255Z,10.85
2022-10-25T09:26:12.140Z,11.32
2022-10-25T09:28:55.935Z,12.10
2022-10-25T09:31:24.486Z,25.45
2022-10-25T09:34:03.906Z,12.57
2022-10-25T09:36:36.299Z,11.15
2022-10-25T09:39:15.763Z,10.45
2022-10-25T09:41:48.313Z,11.20
2022-10-25T09:44:39.017Z,11.55
2022-10-25T09:47:20.575Z,9.13
2022-10-25T09:50:04.145Z,9.68
2022-10-25T09:52:40.316Z,10.48
2022-10-25T09:55:07.340Z,8.18
2022-10-25T09:57:34.246Z,8.55
2022-10-25T10:00:01.802Z,7.47
2022-10-25T10:02:28.798Z,8.65
2022-10-25T10:04:56.164Z,6.63
2022-10-25T10:07:27.423Z,7.70
2022-10-25T10:09:58.313Z,8.57
2022-10-25T10:12:51.700Z,8.45
2022-10-25T10:15:21.879Z,8.73
2022-10-25T10:18:08.779Z,8.88
2022-10-25T10:20:35.694Z,12.07
2022-10-25T10:23:04.966Z,6.75
2022-10-25T10:25:36.684Z,9.10
2022-10-25T10:28:03.962Z,9.15
2022-10-25T10:30:31.701Z,12.85
2022-10-25T10:33:01.372Z,9.23
2022-10-25T10:35:34.256Z,11.68
2022-10-25T10:38:33.592Z,12.27
2022-10-25T10:41:36.434Z,10.20
2022-10-25T10:44:13.970Z,7.27
2022-10-25T10:46:49.205Z,11.50
2022-10-25T10:49:17.017Z,10.45
2022-10-25T10:51:45.841Z,11.55
2022-10-25T10:54:13.866Z,6.75
2022-10-25T10:56:40.743Z,8.48
2022-10-25T10:59:43.144Z,8.63
2022-10-25T11:02:19.267Z,36.67
2022-10-25T11:04:50.532Z,11.68
2022-10-25T11:07:34.972Z,9.18
2022-10-25T11:10:32.736Z,10.10
2022-10-25T11:13:18.950Z,8.50
2022-10-25T11:16:24.418Z,9.73
2022-10-25T11:19:02.440Z,7.20
2022-10-25T11:21:52.099Z,8.90
2022-10-25T11:24:52.472Z,13.02
2022-10-25T11:27:35.082Z,9.23
2022-10-25T11:30:14.769Z,9.20
2022-10-25T11:33:12.226Z,8.40
2022-10-25T11:35:53.082Z,10.00
2022-10-25T11:38:22.909Z,9.13
2022-10-25T11:41:15.399Z,10.18
2022-10-25T11:44:05.686Z,9.18
2022-10-25T11:46:33.037Z,9.60
2022-10-25T11:49:05.897Z,9.65
2022-10-25T11:51:33.151Z,15.25
2022-10-25T11:54:31.170Z,11.00
2022-10-25T11:57:36.052Z,9.85
2022-10-25T12:00:17.290Z,12.13
2022-10-25T12:02:53.200Z,12.35
2022-10-25T12:05:44.802Z,12.70
2022-10-25T12:08:26.828Z,16.60
2022-10-25T12:11:00.698Z,12.30
2022-10-25T12:13:39.145Z,13.48
2022-10-25T12:16:11.829Z,11.65
2022-10-25T12:18:43.272Z,12.90
2022-10-25T12:21:13.303Z,13.68
2022-10-25T12:23:45.530Z,17.10
2022-10-25T12:26:27.881Z,20.98
2022-10-25T12:28:56.900Z,13.07
2022-10-25T12:31:38.808Z,14.32
2022-10-25T12:34:17.245Z,15.43
2022-10-25T12:36:54.436Z,14.23
2022-10-25T12:39:21.691Z,15.30
2022-10-25T12:42:04.066Z,15.50
2022-10-25T12:44:55.888Z,16.10
2022-10-25T12:47:23.137Z,12.77
2022-10-25T12:50:08.710Z,14.48
2022-10-25T12:53:01.591Z,16.67
2022-10-25T12:55:41.570Z,15.38
2022-10-25T12:58:49.823Z,12.13
2022-10-25T13:02:00.306Z,14.55
2022-10-25T13:04:27.555Z,12.85
2022-10-25T13:06:56.178Z,38.65
2022-10-25T13:09:27.206Z,10.43
2022-10-25T13:12:18.184Z,13.68
2022-10-25T13:14:50.727Z,10.88
2022-10-25T13:17:20.447Z,12.38
2022-10-25T13:19:54.459Z,10.43
2022-10-25T13:22:37.763Z,18.77
2022-10-25T13:25:06.145Z,14.27
2022-10-25T13:27:35.023Z,11.38
2022-10-25T13:30:06.606Z,11.45
2022-10-25T13:32:41.517Z,15.38
2022-10-25T13:35:21.304Z,15.13
2022-10-25T13:38:08.866Z,19.27
2022-10-25T13:40:38.367Z,16.10
2022-10-25T13:43:07.952Z,12.98
2022-10-25T13:45:54.470Z,20.83
2022-10-25T13:48:33.467Z,17.35
2022-10-25T13:51:00.359Z,12.07
2022-10-25T13:53:37.743Z,16.10
2022-10-25T13:56:14.391Z,14.60
2022-10-25T13:58:48.276Z,15.32
2022-10-25T14:01:18.432Z,14.95
2022-10-25T14:03:54.357Z,14.68
2022-10-25T14:06:43.454Z,17.52
2022-10-25T14:09:10.761Z,28.52
2022-10-25T14:12:01.650Z,13.75
2022-10-25T14:14:49.935Z,12.68
2022-10-25T14:17:41.726Z,16.38
2022-10-25T14:20:10.459Z,12.23
2022-10-25T14:22:42.833Z,15.20
2022-10-25T14:25:23.094Z,16.13
2022-10-25T14:27:50.278Z,14.18
2022-10-25T14:30:23.536Z,17.17
2022-10-25T14:32:55.579Z,13.38
2022-10-25T14:35:24.621Z,14.60
2022-10-25T14:37:51.721Z,18.55
2022-10-25T14:40:25.153Z,15.20
2022-10-25T14:42:55.528Z,18.67
2022-10-25T14:45:30.327Z,17.55
2022-10-25T14:48:09.479Z,16.83
2022-10-25T14:50:37.550Z,19.10
2022-10-25T14:53:04.741Z,21.73
2022-10-25T14:55:33.105Z,20.73
2022-10-25T14:58:02.986Z,19.70
2022-10-25T15:00:30.290Z,18.58
2022-10-25T15:03:13.336Z,19.65
2022-10-25T15:05:43.952Z,21.13
2022-10-25T15:08:20.699Z,18.40
2022-10-25T15:10:51.924Z,23.27
2022-10-25T15:13:37.863Z,15.82
2022-10-25T15:16:25.505Z,16.25
2022-10-25T15:19:14.267Z,20.38
2022-10-25T15:21:46.940Z,21.63
2022-10-25T15:24:25.829Z,22.65
2022-10-25T15:26:55.836Z,17.63
2022-10-25T15:32:16.229Z,19.70
2022-10-25T15:34:45.637Z,20.60
2022-10-25T15:37:14.276Z,20.98
2022-10-25T15:42:15.294Z,24.50
2022-10-25T15:44:43.153Z,19.85
2022-10-25T15:47:32.998Z,21.75
2022-10-25T15:50:02.041Z,22.63
2022-10-25T15:52:31.653Z,19.55
2022-10-25T15:54:58.529Z,23.08
2022-10-25T15:57:27.453Z,21.17
2022-10-25T15:59:54.435Z,18.30
2022-10-25T16:02:27.167Z,27.90
2022-10-25T16:04:54.532Z,18.58
2022-10-25T16:07:22.365Z,20.38
2022-10-25T16:09:49.643Z,21.58
2022-10-25T16:12:23.506Z,23.88
2022-10-25T16:14:52.248Z,22.00
2022-10-25T16:17:19.179Z,21.50
2022-10-25T16:19:46.335Z,25.50
2022-10-25T16:22:13.223Z,24.52
2022-10-25T16:24:40.332Z,33.97
2022-10-25T16:27:07.616Z,27.75
2022-10-25T16:29:34.634Z,20.60
2022-10-25T16:32:04.101Z,21.05
2022-10-25T16:34:31.189Z,13.77
2022-10-25T16:36:58.553Z,14.23
2022-10-25T16:39:25.420Z,10.70
2022-10-25T16:41:54.934Z,12.68
2022-10-25T16:44:22.096Z,12.48
2022-10-25T16:46:48.995Z,10.05
2022-10-25T16:49:16.134Z,12.82
2022-10-25T16:51:44.547Z,11.82
2022-10-25T16:54:12.451Z,8.90
2022-10-25T16:56:39.792Z,10.18
2022-10-25T16:59:06.744Z,13.45
2022-10-25T17:01:35.153Z,10.68
2022-10-25T17:04:03.586Z,9.88
2022-10-25T17:06:45.924Z,10.85
2022-10-25T17:09:13.091Z,11.43
2022-10-25T17:11:40.048Z,11.88
2022-10-25T17:14:09.830Z,9.20
2022-10-25T17:16:39.538Z,9.95
2022-10-25T17:19:06.519Z,9.95
2022-10-25T17:21:35.846Z,14.35
2022-10-25T17:24:04.815Z,22.10
2022-10-25T17:26:31.663Z,16.20
2022-10-25T17:29:00.902Z,19.02
2022-10-25T17:31:28.873Z,15.60
2022-10-25T17:33:56.825Z,13.50
2022-10-25T17:36:23.861Z,12.93
2022-10-25T17:38:50.970Z,15.55
2022-10-25T17:41:18.301Z,17.38
2022-10-25T17:43:45.351Z,14.20
2022-10-25T17:46:20.977Z,14.00
2022-10-25T17:48:48.233Z,11.40
2022-10-25T17:51:16.246Z,14.13
2022-10-25T17:53:43.212Z,13.98
2022-10-25T17:56:15.565Z,18.95
2022-10-25T17:58:43.961Z,28.90
2022-10-25T18:01:12.548Z,16.05
2022-10-25T18:03:40.118Z,17.08
2022-10-25T18:06:12.547Z,14.40
2022-10-25T18:08:40.386Z,12.88
2022-10-25T18:11:12.346Z,16.70
2022-10-25T18:13:40.853Z,11.98
2022-10-25T18:16:09.487Z,17.17
2022-10-25T18:18:36.764Z,16.20
2022-10-25T18:21:08.903Z,16.55
2022-10-25T18:23:38.658Z,18.40
2022-10-25T18:26:07.574Z,19.15
2022-10-25T18:28:36.089Z,24.52
2022-10-25T18:31:06.546Z,20.42
2022-10-25T18:33:35.266Z,23.60
2022-10-25T18:36:08.510Z,25.67
2022-10-25T18:38:35.450Z,24.95
2022-10-25T18:41:17.927Z,28.40
2022-10-25T18:43:45.223Z,25.77
2022-10-25T18:46:12.500Z,22.55
2022-10-25T18:48:39.471Z,29.85
2022-10-25T18:51:11.291Z,30.58
2022-10-25T18:53:41.556Z,31.33
2022-10-25T18:56:15.856Z,27.25
2022-10-25T18:58:46.195Z,27.38
2022-10-25T19:01:15.779Z,28.40
2022-10-25T19:03:43.787Z,25.55
2022-10-25T19:06:10.955Z,22.42
2022-10-25T19:08:38.393Z,31.45
2022-10-25T19:11:08.431Z,34.85
2022-10-25T19:13:35.525Z,22.52
2022-10-25T19:16:03.018Z,23.52
2022-10-25T19:18:31.075Z,21.25
2022-10-25T19:21:09.709Z,20.02
2022-10-25T19:23:39.235Z,20.45
2022-10-25T19:26:08.990Z,20.77
2022-10-25T19:28:36.554Z,18.55
2022-10-25T19:31:09.323Z,19.83
2022-10-25T19:33:36.563Z,20.40
2022-10-25T19:36:09.196Z,18.85
2022-10-25T19:38:37.295Z,20.60
2022-10-25T19:41:07.023Z,19.10
2022-10-25T19:43:35.107Z,18.10
2022-10-25T19:46:04.842Z,23.10
2022-10-25T19:48:32.878Z,17.80
2022-10-25T19:51:14.758Z,20.70
2022-10-25T19:53:41.649Z,15.07
2022-10-25T19:56:15.645Z,22.17
2022-10-25T19:58:43.073Z,22.50
2022-10-25T20:01:12.294Z,24.85
2022-10-25T20:03:40.523Z,36.00
2022-10-25T20:06:10.731Z,21.17
2022-10-25T20:08:39.095Z,24.85
2022-10-25T20:11:07.642Z,21.30
2022-10-25T20:13:34.820Z,21.55
2022-10-25T20:16:02.343Z,24.60
2022-10-25T20:18:33.052Z,20.55
2022-10-25T20:21:02.184Z,16.02
2022-10-25T20:23:29.942Z,19.17
2022-10-25T20:25:56.845Z,23.27
2022-10-25T20:28:24.007Z,23.23
2022-10-25T20:30:51.615Z,19.13
2022-10-25T20:33:20.509Z,19.25
2022-10-25T20:35:47.546Z,17.33
2022-10-25T20:38:14.618Z,20.08
2022-10-25T20:40:42.005Z,20.08
2022-10-25T20:43:09.019Z,20.88
2022-10-25T20:45:35.940Z,20.10
2022-10-25T20:48:03.564Z,24.10
2022-10-25T20:50:30.449Z,28.85
2022-10-25T20:53:12.620Z,21.95
2022-10-25T20:55:39.827Z,17.77
2022-10-25T20:58:07.204Z,18.63
2022-10-25T21:00:34.129Z,35.40
2022-10-25T21:03:01.250Z,25.60
2022-10-25T21:05:28.516Z,18.48
2022-10-25T21:07:55.377Z,18.83
2022-10-25T21:10:22.278Z,20.08
2022-10-25T21:12:49.531Z,18.13
2022-10-25T21:15:16.539Z,20.02
2022-10-25T21:17:48.778Z,19.95
2022-10-25T21:20:15.903Z,23.98
2022-10-25T21:22:43.149Z,16.67
2022-10-25T21:25:10.190Z,17.77
2022-10-25T21:27:37.486Z,23.58
2022-10-25T21:30:05.054Z,17.02
2022-10-25T21:32:32.823Z,17.42
2022-10-25T21:34:59.864Z,16.75
2022-10-25T21:37:27.317Z,21.23
2022-10-25T21:39:54.612Z,15.75
2022-10-25T21:42:21.521Z,19.83
2022-10-25T21:44:48.386Z,17.48
2022-10-25T21:47:15.277Z,19.02
2022-10-25T21:49:42.308Z,16.98
2022-10-25T21:52:09.242Z,21.15
2022-10-25T21:54:36.349Z,18.88
2022-10-25T21:57:03.223Z,18.35
2022-10-25T21:59:30.230Z,19.58
2022-10-25T22:01:57.364Z,23.13
2022-10-25T22:04:25.334Z,19.42
2022-10-25T22:06:52.663Z,19.35
2022-10-25T22:09:19.642Z,20.02
2022-10-25T22:11:50.590Z,20.42
2022-10-25T22:14:17.831Z,25.00
2022-10-25T22:16:45.187Z,30.88
2022-10-25T22:19:18.207Z,23.77
2022-10-25T22:21:46.218Z,21.10
2022-10-25T22:24:13.573Z,19.55
2022-10-25T22:26:43.157Z,18.60
2022-10-25T22:29:12.265Z,18.52
2022-10-25T22:31:39.853Z,19.13
2022-10-25T22:34:08.613Z,18.33
2022-10-25T22:36:38.565Z,20.05
2022-10-25T22:39:07.190Z,21.23
2022-10-25T22:41:34.827Z,19.27
2022-10-25T22:44:02.051Z,20.10
2022-10-25T22:46:35.287Z,19.30
2022-10-25T22:51:33.737Z,19.50
2022-10-25T22:54:00.676Z,22.95
2022-10-25T22:56:31.691Z,20.20
2022-10-25T22:59:01.096Z,20.30
2022-10-25T23:01:33.957Z,18.63
2022-10-25T23:04:04.289Z,24.33
2022-10-25T23:06:37.496Z,19.90
2022-10-25T23:09:08.979Z,18.55
2022-10-25T23:11:40.595Z,19.23
2022-10-25T23:14:13.408Z,21.15
2022-10-25T23:16:43.584Z,20.33
2022-10-25T23:19:10.415Z,18.52
2022-10-25T23:21:37.624Z,21.48
2022-10-25T23:24:04.814Z,20.20
2022-10-25T23:26:33.720Z,20.77
2022-10-25T23:29:01.182Z,25.83
2022-10-25T23:31:28.925Z,19.58
2022-10-25T23:33:57.802Z,19.38
2022-10-25T23:36:27.146Z,20.83
2022-10-25T23:38:55.611Z,22.10
2022-10-25T23:41:23.166Z,21.05
2022-10-25T23:43:50.425Z,26.38
2022-10-25T23:46:17.550Z,26.30
2022-10-25T23:48:44.403Z,18.90
2022-10-25T23:51:14.156Z,26.80
2022-10-25T23:53:41.453Z,31.48
2022-10-25T23:56:10.337Z,22.20
2022-10-25T23:58:38.382Z,22.23
